Time;durP1;ratioP1;P1;durP2;ratioP2;P2;SDS_P1;SDS_P2;PMS_P1;PMS_P2;Temp;Humidity;BMP_temperature;BMP_pressure;BME280_temperature;BME280_humidity;BME280_pressure;Samples;Min_cycle;Max_cycle;Signal;HPM_P1;HPM_P2
2021/04/29 00:01:10;;;;;;;1.20;0.90;;;;;;;11.57;84.53;95510.81;4991772;28;20042;-62
2021/04/29 00:03:36;;;;;;;0.90;0.70;;;;;;;11.44;84.53;95510.50;4998316;28;20045;-61
2021/04/29 00:06:05;;;;;;;1.33;0.70;;;;;;;11.41;84.61;95503.06;5001912;28;20124;-60
2021/04/29 00:08:31;;;;;;;1.13;0.80;;;;;;;11.41;85.40;95505.81;4981238;28;20512;-65
2021/04/29 00:10:56;;;;;;;0.95;0.70;;;;;;;11.38;85.05;95506.63;4999129;28;20128;-61
2021/04/29 00:13:22;;;;;;;0.80;0.60;;;;;;;11.56;83.36;95514.75;4996912;28;20448;-61
2021/04/29 00:15:48;;;;;;;0.95;0.70;;;;;;;11.72;81.89;95516.19;5001701;28;20045;-62
2021/04/29 00:18:17;;;;;;;1.55;0.50;;;;;;;11.73;81.94;95506.78;4996054;28;20046;-62
2021/04/29 00:20:44;;;;;;;1.10;0.70;;;;;;;11.79;81.90;95516.13;5001714;28;20709;-61
2021/04/29 00:23:10;;;;;;;3.92;1.05;;;;;;;11.83;81.85;95516.91;4995674;28;20489;-62
2021/04/29 00:25:35;;;;;;;5.20;1.63;;;;;;;11.82;82.11;95529.06;5000693;28;20054;-61
2021/04/29 00:28:00;;;;;;;3.55;1.20;;;;;;;11.84;81.71;95521.97;5001283;28;20038;-60
2021/04/29 00:30:26;;;;;;;2.60;1.00;;;;;;;11.81;81.69;95522.81;4996223;28;20084;-64
2021/04/29 00:32:51;;;;;;;1.10;0.70;;;;;;;11.59;82.93;95529.59;5002123;28;20673;-60
2021/04/29 00:35:17;;;;;;;2.38;0.90;;;;;;;11.71;81.32;95533.84;4996134;28;20053;-64
2021/04/29 00:37:42;;;;;;;3.90;1.60;;;;;;;11.74;81.03;95520.09;5002201;28;20438;-62
2021/04/29 00:40:09;;;;;;;1.45;0.70;;;;;;;11.51;81.83;95533.59;4996364;28;20041;-62
2021/04/29 00:42:38;;;;;;;1.08;0.60;;;;;;;11.65;80.93;95533.50;5000714;28;20049;-62
2021/04/29 00:45:06;;;;;;;2.92;0.90;;;;;;;11.81;79.72;95535.72;4997665;28;20046;-61
2021/04/29 00:47:32;;;;;;;1.35;0.90;;;;;;;11.72;80.71;95540.88;5001243;28;20064;-61
2021/04/29 00:49:59;;;;;;;1.38;0.60;;;;;;;11.69;80.82;95544.44;5001533;28;20034;-63
2021/04/29 00:52:24;;;;;;;1.83;0.70;;;;;;;11.76;80.00;95541.66;4995655;28;20072;-61
2021/04/29 00:54:51;;;;;;;4.60;1.40;;;;;;;11.80;79.96;95545.91;5001642;28;20078;-60
2021/04/29 00:57:16;;;;;;;2.55;0.80;;;;;;;11.86;79.46;95538.81;4997712;28;20100;-62
2021/04/29 00:59:42;;;;;;;8.90;1.08;;;;;;;11.88;78.62;95540.38;5006626;28;20046;-64
2021/04/29 01:02:08;;;;;;;4.25;0.98;;;;;;;11.89;78.91;95539.97;4996629;28;20046;-60
2021/04/29 01:04:39;;;;;;;1.55;0.85;;;;;;;11.95;78.03;95546.63;5000201;28;20069;-62
2021/04/29 01:07:11;;;;;;;1.20;0.70;;;;;;;11.82;79.10;95535.31;4994202;28;20125;-65
2021/04/29 01:09:47;;;;;;;2.55;0.88;;;;;;;11.74;79.60;95552.22;5000548;28;20055;-64
2021/04/29 01:12:28;;;;;;;2.13;0.80;;;;;;;11.82;79.16;95542.78;4995426;28;20064;-63
2021/04/29 01:14:56;;;;;;;0.68;0.63;;;;;;;11.71;78.81;95544.81;4998513;28;20100;-63
2021/04/29 01:17:22;;;;;;;0.93;0.60;;;;;;;11.82;78.11;95548.25;5000206;28;20042;-63
2021/04/29 01:19:52;;;;;;;0.73;0.40;;;;;;;11.92;77.23;95550.19;5002303;28;20049;-62
2021/04/29 01:22:17;;;;;;;1.40;0.75;;;;;;;11.78;78.39;95550.25;4995644;28;20467;-63
2021/04/29 01:25:06;;;;;;;0.85;0.60;;;;;;;11.72;78.40;95551.84;5000717;28;20065;-62
2021/04/29 01:27:32;;;;;;;0.75;0.60;;;;;;;11.61;79.11;95552.72;4999994;28;20137;-63
2021/04/29 01:30:01;;;;;;;2.75;0.60;;;;;;;11.67;78.38;95553.06;4998897;28;20095;-62
2021/04/29 01:32:27;;;;;;;1.35;0.60;;;;;;;11.71;78.18;95556.56;4996005;28;20049;-64
2021/04/29 01:34:53;;;;;;;1.05;0.57;;;;;;;11.63;78.57;95558.56;5000395;28;20042;-63
2021/04/29 01:37:20;;;;;;;0.90;0.63;;;;;;;11.57;78.43;95564.88;5000130;28;20505;-63
2021/04/29 01:39:45;;;;;;;2.88;0.60;;;;;;;11.57;79.27;95571.13;5004787;28;20528;-64
2021/04/29 01:42:12;;;;;;;1.13;0.50;;;;;;;11.62;78.75;95564.47;4996002;28;20061;-63
2021/04/29 01:44:38;;;;;;;1.95;0.60;;;;;;;11.45;79.40;95577.06;5000701;28;20054;-64
2021/04/29 01:47:04;;;;;;;1.02;0.70;;;;;;;11.54;79.19;95580.19;5004403;28;20069;-61
2021/04/29 01:49:30;;;;;;;0.60;0.50;;;;;;;11.53;79.53;95583.31;5003345;28;20493;-63
2021/04/29 01:51:56;;;;;;;0.65;0.50;;;;;;;11.39;79.80;95584.94;5001655;28;20053;-63
2021/04/29 01:54:22;;;;;;;0.88;0.50;;;;;;;11.40;80.17;95588.47;4993941;28;20967;-63
2021/04/29 01:56:48;;;;;;;0.82;0.65;;;;;;;11.34;80.67;95593.56;5000432;28;20042;-62
2021/04/29 01:59:15;;;;;;;1.95;0.60;;;;;;;11.26;80.38;95587.34;4997232;28;20133;-63
2021/04/29 02:01:42;;;;;;;0.65;0.60;;;;;;;11.20;80.37;95582.66;5003611;28;20119;-65
2021/04/29 02:04:09;;;;;;;7.45;1.10;;;;;;;11.07;80.89;95590.53;4996105;28;20049;-65
2021/04/29 02:06:43;;;;;;;8.20;1.35;;;;;;;11.04;79.39;95591.34;5000109;28;20050;-65
2021/04/29 02:09:09;;;;;;;1.75;1.15;;;;;;;10.98;80.01;95607.41;4998438;28;20045;-64
2021/04/29 02:11:39;;;;;;;2.53;1.50;;;;;;;11.03;80.11;95611.69;5004668;28;20069;-63
2021/04/29 02:14:08;;;;;;;3.30;1.30;;;;;;;11.03;80.53;95607.00;4998614;28;20401;-64
2021/04/29 02:16:42;;;;;;;3.13;1.30;;;;;;;11.02;81.18;95608.19;5003772;28;20595;-65
2021/04/29 02:19:08;;;;;;;3.08;1.30;;;;;;;11.00;81.93;95610.56;4998475;28;20050;-65
2021/04/29 02:21:37;;;;;;;1.65;1.25;;;;;;;11.00;81.97;95618.78;5003457;28;20622;-65
2021/04/29 02:24:04;;;;;;;1.90;1.30;;;;;;;11.07;81.56;95623.44;5000749;28;20041;-61
2021/04/29 02:26:31;;;;;;;2.53;1.50;;;;;;;11.00;81.09;95626.19;5004415;28;20103;-63
2021/04/29 02:28:57;;;;;;;3.30;2.00;;;;;;;10.93;80.25;95624.25;5004709;28;20046;-65
2021/04/29 02:31:23;;;;;;;5.13;1.85;;;;;;;10.90;80.37;95627.78;5000319;28;20533;-65
2021/04/29 02:33:51;;;;;;;5.10;2.67;;;;;;;10.78;79.87;95628.97;5004256;28;20087;-63
2021/04/29 02:36:17;;;;;;;5.82;2.33;;;;;;;10.75;78.86;95631.72;5003234;28;20049;-66
2021/04/29 02:38:43;;;;;;;3.33;2.03;;;;;;;10.72;78.30;95625.06;5014945;28;20069;-63
2021/04/29 02:41:09;;;;;;;4.93;1.80;;;;;;;10.53;78.45;95618.03;5014791;28;20056;-65
2021/04/29 02:43:35;;;;;;;5.93;2.15;;;;;;;10.51;76.97;95617.66;5014852;28;20648;-60
2021/04/29 02:46:02;;;;;;;3.00;2.10;;;;;;;10.39;76.73;95632.53;5004069;28;20077;-60
2021/04/29 02:48:28;;;;;;;3.70;2.20;;;;;;;10.39;76.47;95631.75;4999306;28;20057;-62
2021/04/29 02:50:54;;;;;;;6.03;2.55;;;;;;;10.38;77.03;95638.41;5004017;28;20042;-62
2021/04/29 02:53:20;;;;;;;4.00;2.00;;;;;;;10.21;77.22;95634.44;4997880;28;20038;-62
2021/04/29 02:55:48;;;;;;;4.07;1.88;;;;;;;10.20;77.17;95635.63;5003659;28;20037;-62
2021/04/29 02:58:16;;;;;;;6.00;2.00;;;;;;;10.16;76.48;95627.41;4995097;28;20100;-59
2021/04/29 03:00:43;;;;;;;4.72;1.70;;;;;;;10.17;77.91;95625.47;5003037;28;20042;-61
2021/04/29 03:03:09;;;;;;;3.22;1.77;;;;;;;10.02;77.92;95632.88;4997759;28;20077;-59
2021/04/29 03:05:36;;;;;;;2.17;1.50;;;;;;;10.08;78.01;95642.25;5002553;28;20066;-60
2021/04/29 03:08:02;;;;;;;3.80;1.85;;;;;;;9.98;78.66;95635.59;5002582;28;20038;-62
2021/04/29 03:10:28;;;;;;;6.32;2.15;;;;;;;9.89;79.19;95627.78;5002398;28;20130;-65
2021/04/29 03:12:54;;;;;;;5.70;1.55;;;;;;;9.84;79.53;95630.88;5011210;28;20077;-59
2021/04/29 03:15:20;;;;;;;4.75;1.75;;;;;;;9.72;80.19;95636.72;4998354;28;20038;-62
2021/04/29 03:17:46;;;;;;;2.53;1.60;;;;;;;9.78;79.73;95640.66;5003172;28;20040;-63
2021/04/29 03:20:12;;;;;;;5.03;2.08;;;;;;;9.77;79.52;95642.59;4998387;28;20038;-61
2021/04/29 03:22:37;;;;;;;4.63;1.58;;;;;;;9.71;81.17;95646.09;5012716;28;20046;-59
2021/04/29 03:25:04;;;;;;;6.80;1.88;;;;;;;9.66;80.24;95644.50;5001196;28;20049;-62
2021/04/29 03:27:29;;;;;;;4.32;1.80;;;;;;;9.57;80.00;95650.34;5017810;28;20069;-62
2021/04/29 03:29:55;;;;;;;2.92;2.03;;;;;;;9.61;79.74;95653.09;5003070;28;20370;-62
2021/04/29 03:32:20;;;;;;;4.18;1.90;;;;;;;9.64;79.11;95643.34;4996465;28;20434;-63
2021/04/29 03:34:46;;;;;;;5.13;1.92;;;;;;;9.63;79.56;95649.97;5002371;28;20057;-61
2021/04/29 03:37:11;;;;;;;4.35;1.90;;;;;;;9.72;78.37;95650.38;4997477;28;20641;-61
2021/04/29 03:39:37;;;;;;;5.03;1.98;;;;;;;9.71;78.49;95651.56;5003050;28;20046;-62
2021/04/29 03:42:06;;;;;;;5.20;2.22;;;;;;;9.61;79.26;95665.97;4998730;28;20100;-65
2021/04/29 03:44:32;;;;;;;4.45;2.60;;;;;;;9.54;79.77;95662.06;5002445;28;20133;-61
2021/04/29 03:46:57;;;;;;;5.60;2.10;;;;;;;9.44;80.82;95681.16;5002810;28;20128;-60
2021/04/29 03:49:23;;;;;;;5.20;2.10;;;;;;;9.45;80.11;95678.00;4996892;28;20501;-63
2021/04/29 03:51:48;;;;;;;4.28;2.33;;;;;;;9.52;79.35;95680.78;5002955;28;20050;-63
2021/04/29 03:54:13;;;;;;;6.93;2.40;;;;;;;9.42;79.05;95683.47;4997184;28;20489;-63
2021/04/29 03:56:39;;;;;;;8.23;2.15;;;;;;;9.45;79.24;95690.91;5003106;28;20054;-64
2021/04/29 03:59:05;;;;;;;6.93;2.33;;;;;;;9.52;79.57;95699.13;4997744;28;20045;-65
2021/04/29 04:01:30;;;;;;;5.53;2.35;;;;;;;9.62;79.13;95690.19;5002161;28;20042;-62
2021/04/29 04:03:55;;;;;;;4.07;2.38;;;;;;;9.54;78.82;95705.00;5002562;28;20038;-63
2021/04/29 04:06:21;;;;;;;5.70;2.60;;;;;;;9.60;79.11;95705.41;4997061;28;20143;-63
2021/04/29 04:08:46;;;;;;;3.75;2.30;;;;;;;9.50;78.47;95720.59;5001975;28;20045;-62
2021/04/29 04:11:12;;;;;;;4.80;2.50;;;;;;;9.57;78.65;95707.75;4996505;28;20370;-63
2021/04/29 04:13:37;;;;;;;4.18;2.58;;;;;;;9.50;78.93;95712.41;5020612;28;20041;-64
2021/04/29 04:16:03;;;;;;;4.15;2.40;;;;;;;9.45;79.35;95716.28;5018983;28;20531;-67
2021/04/29 04:18:28;;;;;;;6.18;2.70;;;;;;;9.47;78.36;95715.91;5019496;28;20439;-63
2021/04/29 04:20:54;;;;;;;6.82;2.78;;;;;;;9.57;77.39;95720.63;5021182;28;20037;-63
2021/04/29 04:23:19;;;;;;;4.82;2.15;;;;;;;9.47;78.02;95722.16;5023498;28;20045;-62
2021/04/29 04:25:44;;;;;;;9.75;3.33;;;;;;;9.49;77.74;95719.84;5028985;28;20041;-61
2021/04/29 04:28:10;;;;;;;7.93;2.85;;;;;;;9.44;78.70;95722.94;5022288;28;20056;-64
2021/04/29 04:30:36;;;;;;;6.90;3.17;;;;;;;9.34;79.08;95723.66;5029552;28;20131;-62
2021/04/29 04:33:01;;;;;;;5.53;3.00;;;;;;;9.33;80.89;95730.28;5025417;28;20045;-67
2021/04/29 04:35:27;;;;;;;4.80;2.78;;;;;;;9.43;81.24;95736.97;5022007;28;20144;-63
2021/04/29 04:37:52;;;;;;;4.65;2.80;;;;;;;9.37;81.00;95737.31;5024492;28;20037;-63
2021/04/29 04:40:18;;;;;;;6.25;3.10;;;;;;;9.40;82.76;95740.47;5013382;28;20041;-62
2021/04/29 04:42:43;;;;;;;8.18;3.30;;;;;;;9.30;83.50;95740.03;5021081;28;20091;-62
2021/04/29 04:45:11;;;;;;;6.18;3.55;;;;;;;9.17;83.99;95745.03;5016014;28;20072;-63
2021/04/29 04:47:37;;;;;;;9.57;3.08;;;;;;;9.14;84.93;95755.94;5021093;28;20037;-63
2021/04/29 04:50:04;;;;;;;6.18;4.00;;;;;;;9.18;84.99;95754.78;5018605;28;20037;-65
2021/04/29 04:52:30;;;;;;;6.50;3.85;;;;;;;9.14;85.84;95761.38;5020356;28;20037;-63
2021/04/29 04:54:55;;;;;;;9.55;5.07;;;;;;;9.21;85.93;95768.84;5020835;28;20060;-63
2021/04/29 04:57:21;;;;;;;7.68;3.95;;;;;;;9.29;86.14;95767.72;5015769;28;20052;-63
2021/04/29 04:59:46;;;;;;;9.52;4.00;;;;;;;9.37;85.55;95770.13;5021203;28;20045;-63
2021/04/29 05:02:12;;;;;;;11.70;4.55;;;;;;;9.34;85.88;95783.75;5015835;28;20107;-63
2021/04/29 05:04:38;;;;;;;10.60;4.15;;;;;;;9.43;85.17;95775.22;5025905;28;20046;-63
2021/04/29 05:07:04;;;;;;;10.93;4.57;;;;;;;9.45;84.44;95783.81;5018274;28;20049;-61
2021/04/29 05:09:30;;;;;;;9.38;4.32;;;;;;;9.45;84.87;95784.59;5020376;28;20133;-63
2021/04/29 05:11:56;;;;;;;9.85;4.38;;;;;;;9.32;85.27;95786.09;5021419;28;20124;-63
2021/04/29 05:14:22;;;;;;;7.88;4.00;;;;;;;9.28;85.26;95796.22;5015796;28;21423;-62
2021/04/29 05:16:48;;;;;;;10.07;5.18;;;;;;;9.46;85.14;95802.59;5020790;28;20523;-63
2021/04/29 05:19:13;;;;;;;9.02;4.53;;;;;;;9.49;84.80;95801.84;5015733;28;20053;-63
2021/04/29 05:21:39;;;;;;;11.68;5.30;;;;;;;9.48;84.89;95802.97;5021148;28;20037;-61
2021/04/29 05:24:05;;;;;;;9.93;4.70;;;;;;;9.55;83.88;95807.72;5016064;28;20520;-60
2021/04/29 05:26:31;;;;;;;8.85;4.00;;;;;;;9.38;85.65;95806.44;5020330;28;20046;-63
2021/04/29 05:28:56;;;;;;;9.63;4.60;;;;;;;9.43;84.56;95808.03;5021126;28;20099;-62
2021/04/29 05:31:21;;;;;;;10.88;5.25;;;;;;;9.44;84.37;95815.84;5016011;28;21086;-62
2021/04/29 05:33:47;;;;;;;8.35;4.40;;;;;;;9.42;85.50;95818.19;5020193;28;20034;-63
2021/04/29 05:36:12;;;;;;;8.98;4.97;;;;;;;9.33;86.52;95823.97;5015008;28;20497;-62
2021/04/29 05:38:38;;;;;;;13.75;5.38;;;;;;;9.14;86.65;95818.75;5002258;28;20037;-63
2021/04/29 05:41:03;;;;;;;10.68;6.18;;;;;;;9.11;86.57;95823.03;5015975;28;20400;-60
2021/04/29 05:43:28;;;;;;;11.32;5.22;;;;;;;9.17;87.17;95823.47;5021262;28;20045;-62
2021/04/29 05:45:54;;;;;;;9.02;5.32;;;;;;;9.22;86.14;95823.13;5023438;28;20040;-63
2021/04/29 05:48:19;;;;;;;10.55;5.60;;;;;;;9.16;86.52;95824.63;5017183;28;20041;-63
2021/04/29 05:50:45;;;;;;;8.45;5.25;;;;;;;9.20;86.92;95830.91;5024399;28;20037;-63
2021/04/29 05:53:10;;;;;;;10.50;5.50;;;;;;;9.18;87.31;95828.56;5019025;28;20046;-62
2021/04/29 05:55:35;;;;;;;10.20;5.53;;;;;;;9.51;86.20;95821.38;5023712;28;20563;-64
2021/04/29 05:58:01;;;;;;;15.60;5.53;;;;;;;9.60;84.58;95820.22;5024266;28;20049;-64
2021/04/29 06:00:27;;;;;;;12.25;5.30;;;;;;;9.73;84.95;95810.56;5019045;28;20630;-63
2021/04/29 06:02:55;;;;;;;8.18;4.60;;;;;;;10.03;83.34;95823.19;5023836;28;20091;-62
2021/04/29 06:05:21;;;;;;;9.40;5.50;;;;;;;10.18;81.76;95824.81;5020040;28;20419;-64
2021/04/29 06:07:56;;;;;;;9.65;4.97;;;;;;;10.13;81.43;95825.19;5025203;28;20050;-63
2021/04/29 06:10:22;;;;;;;12.13;5.45;;;;;;;10.06;81.14;95825.94;5018630;28;20804;-64
2021/04/29 06:12:48;;;;;;;12.25;5.15;;;;;;;10.30;79.54;95816.28;5024292;28;20180;-63
2021/04/29 06:15:13;;;;;;;12.93;5.15;;;;;;;10.54;78.38;95814.00;5018735;28;20534;-67
2021/04/29 06:17:39;;;;;;;13.18;5.22;;;;;;;10.43;79.99;95819.47;5022620;28;20077;-64
2021/04/29 06:20:05;;;;;;;9.75;4.80;;;;;;;10.39;79.59;95820.59;5018744;28;20033;-63
2021/04/29 06:22:30;;;;;;;8.57;5.30;;;;;;;10.46;80.10;95818.69;5023365;28;20037;-64
2021/04/29 06:24:56;;;;;;;7.68;4.70;;;;;;;10.71;78.10;95815.22;5023266;28;20041;-64
2021/04/29 06:27:21;;;;;;;14.63;6.07;;;;;;;10.65;78.24;95811.28;5018508;28;20395;-63
2021/04/29 06:29:46;;;;;;;11.68;5.63;;;;;;;10.41;78.91;95824.53;5023723;28;20053;-63
2021/04/29 06:32:12;;;;;;;7.30;4.20;;;;;;;10.61;78.24;95810.50;5017910;28;20195;-63
2021/04/29 06:34:38;;;;;;;8.68;4.88;;;;;;;10.75;76.37;95812.47;5023556;28;20045;-64
2021/04/29 06:37:03;;;;;;;8.40;5.25;;;;;;;10.54;78.59;95824.19;5020404;28;20042;-63
2021/04/29 06:39:29;;;;;;;8.77;5.28;;;;;;;10.54;77.62;95832.41;5023136;28;20073;-65
2021/04/29 06:41:54;;;;;;;12.63;5.93;;;;;;;10.65;77.03;95838.69;5023413;28;20522;-64
2021/04/29 06:44:19;;;;;;;9.23;5.10;;;;;;;10.50;77.13;95835.91;5021442;28;20045;-63
2021/04/29 06:46:45;;;;;;;12.15;5.95;;;;;;;10.46;77.80;95834.31;5024586;28;20037;-63
2021/04/29 06:49:11;;;;;;;8.85;4.68;;;;;;;10.43;77.82;95833.16;5017375;28;20432;-62
2021/04/29 06:51:36;;;;;;;9.95;5.05;;;;;;;10.37;76.80;95842.91;5006929;28;20401;-65
2021/04/29 06:54:01;;;;;;;11.43;5.05;;;;;;;10.32;76.72;95854.22;4998717;28;20489;-64
2021/04/29 06:56:27;;;;;;;10.02;5.28;;;;;;;10.42;76.80;95842.50;4997584;28;20065;-64
2021/04/29 06:58:52;;;;;;;9.48;4.82;;;;;;;10.57;75.23;95856.25;5000909;28;20045;-62
2021/04/29 07:01:18;;;;;;;9.38;4.50;;;;;;;10.62;75.03;95842.97;4999876;28;20042;-64
2021/04/29 07:03:43;;;;;;;10.30;5.10;;;;;;;10.66;74.25;95840.22;5005587;28;20271;-64
2021/04/29 07:06:09;;;;;;;10.60;5.18;;;;;;;10.65;74.55;95846.91;4999773;28;20041;-63
2021/04/29 07:08:34;;;;;;;12.07;5.10;;;;;;;10.65;75.81;95853.16;5022318;28;20161;-64
2021/04/29 07:10:59;;;;;;;9.43;4.93;;;;;;;10.78;74.80;95850.81;5025349;28;20381;-65
2021/04/29 07:13:25;;;;;;;11.48;4.88;;;;;;;10.90;73.49;95842.25;5019151;28;20060;-64
2021/04/29 07:15:50;;;;;;;8.80;5.03;;;;;;;10.68;73.53;95832.44;5023179;28;20037;-64
2021/04/29 07:18:16;;;;;;;10.80;4.88;;;;;;;10.94;74.54;95836.00;5017337;28;20045;-65
2021/04/29 07:20:42;;;;;;;11.48;5.55;;;;;;;10.89;74.68;95829.72;5022691;28;20496;-62
2021/04/29 07:23:08;;;;;;;7.80;5.47;;;;;;;10.83;74.78;95836.75;5018285;28;20049;-64
2021/04/29 07:25:34;;;;;;;8.50;5.25;;;;;;;10.90;74.31;95836.75;5023948;28;20076;-64
2021/04/29 07:28:00;;;;;;;10.13;5.28;;;;;;;10.64;74.54;95845.31;5023871;28;20053;-64
2021/04/29 07:30:26;;;;;;;9.55;5.85;;;;;;;10.76;76.76;95850.44;5018021;28;20049;-63
2021/04/29 07:32:52;;;;;;;7.35;4.88;;;;;;;10.78;78.83;95861.00;5022797;28;20045;-63
2021/04/29 07:35:17;;;;;;;18.95;4.90;;;;;;;10.83;78.18;95853.19;5016803;28;20136;-62
2021/04/29 07:37:43;;;;;;;11.50;5.40;;;;;;;10.96;77.22;95853.59;5022203;28;20083;-62
2021/04/29 07:40:09;;;;;;;8.73;4.82;;;;;;;10.97;76.52;95863.38;5017203;28;20052;-64
2021/04/29 07:42:34;;;;;;;7.05;4.05;;;;;;;10.99;75.75;95852.81;5021830;28;20569;-65
2021/04/29 07:44:59;;;;;;;13.55;6.10;;;;;;;11.26;74.29;95846.97;5021939;28;20404;-64
2021/04/29 07:47:25;;;;;;;10.23;4.47;;;;;;;11.34;71.58;95853.22;5016128;28;20048;-63
2021/04/29 07:49:50;;;;;;;8.23;5.28;;;;;;;11.40;72.88;95852.44;5021628;28;20136;-62
2021/04/29 07:52:16;;;;;;;11.95;7.72;;;;;;;11.17;74.17;95850.09;5016735;28;20119;-64
2021/04/29 07:54:42;;;;;;;10.20;5.97;;;;;;;10.38;78.34;95840.97;5021049;28;20396;-60
2021/04/29 07:57:07;;;;;;;11.52;6.43;;;;;;;10.11;79.39;95858.41;5016218;28;20049;-63
2021/04/29 07:59:32;;;;;;;13.20;6.53;;;;;;;10.05;78.97;95857.22;5021802;28;20041;-62
2021/04/29 08:01:58;;;;;;;14.18;6.75;;;;;;;10.06;80.07;95850.56;5021097;28;20037;-62
2021/04/29 08:04:23;;;;;;;12.20;6.32;;;;;;;9.99;79.17;95856.00;5015490;28;20045;-63
2021/04/29 08:06:49;;;;;;;8.45;6.00;;;;;;;9.90;81.78;95855.56;5020514;28;20086;-63
2021/04/29 08:09:14;;;;;;;9.25;6.70;;;;;;;9.82;84.00;95848.50;5015454;28;20042;-63
2021/04/29 08:11:40;;;;;;;12.77;7.55;;;;;;;9.73;84.11;95860.56;5021882;28;20045;-63
2021/04/29 08:14:05;;;;;;;11.85;7.53;;;;;;;9.70;84.06;95861.31;5015704;28;20095;-63
2021/04/29 08:16:31;;;;;;;16.13;8.40;;;;;;;9.83;84.43;95853.59;5020999;28;20053;-63
2021/04/29 08:18:57;;;;;;;12.73;7.72;;;;;;;10.13;83.79;95855.28;5020902;28;20156;-64
2021/04/29 08:21:22;;;;;;;11.75;6.22;;;;;;;10.28;82.25;95861.59;5016368;28;20033;-64
2021/04/29 08:23:48;;;;;;;15.00;7.53;;;;;;;10.73;82.07;95869.59;5020949;28;20107;-63
2021/04/29 08:26:13;;;;;;;14.68;7.93;;;;;;;10.74;80.01;95876.66;5016602;28;20045;-64
2021/04/29 08:28:38;;;;;;;16.40;7.90;;;;;;;10.43;82.70;95876.16;5021622;28;20132;-63
2021/04/29 08:31:04;;;;;;;14.18;7.85;;;;;;;10.17;82.81;95875.22;5016878;28;20095;-62
2021/04/29 08:33:29;;;;;;;11.52;7.43;;;;;;;10.11;84.19;95877.56;5021267;28;20037;-63
2021/04/29 08:35:55;;;;;;;15.35;8.18;;;;;;;10.25;83.96;95876.06;5020930;28;20037;-63
2021/04/29 08:38:20;;;;;;;10.75;7.07;;;;;;;9.84;84.91;95877.03;5017801;28;20571;-63
2021/04/29 08:40:46;;;;;;;14.70;8.00;;;;;;;9.83;86.66;95880.94;5026659;28;20037;-65
2021/04/29 08:43:12;;;;;;;14.02;7.65;;;;;;;9.94;84.56;95881.78;5020357;28;20087;-64
2021/04/29 08:45:37;;;;;;;11.45;8.15;;;;;;;10.27;84.33;95879.97;5023411;28;20132;-65
2021/04/29 08:48:03;;;;;;;13.20;8.70;;;;;;;10.17;85.16;95868.97;5017657;28;20377;-62
2021/04/29 08:50:31;;;;;;;15.82;8.48;;;;;;;10.19;86.27;95863.91;5021477;28;20554;-64
2021/04/29 08:52:57;;;;;;;38.75;18.35;;;;;;;10.35;86.42;95864.41;5020925;28;20627;-65
2021/04/29 08:55:25;;;;;;;11.13;6.53;;;;;;;10.26;81.17;95866.69;5015134;28;20527;-63
2021/04/29 08:57:51;;;;;;;8.57;4.80;;;;;;;10.31;79.42;95867.13;5020937;28;20071;-63
2021/04/29 09:00:19;;;;;;;15.02;5.82;;;;;;;10.90;78.22;95869.63;5015906;28;20045;-64
2021/04/29 09:02:45;;;;;;;10.75;5.53;;;;;;;11.31;75.71;95867.72;5021544;28;20046;-63
2021/04/29 09:05:13;;;;;;;11.35;4.80;;;;;;;11.67;72.12;95877.50;5014871;28;20037;-63
2021/04/29 09:07:50;;;;;;;7.88;4.07;;;;;;;11.82;69.15;95863.75;5020053;28;20041;-65
2021/04/29 09:10:31;;;;;;;8.32;4.43;;;;;;;11.16;74.24;95851.25;5016265;28;20057;-64
2021/04/29 09:12:59;;;;;;;11.40;5.30;;;;;;;10.82;77.77;95846.16;5020467;28;20045;-63
2021/04/29 09:15:31;;;;;;;8.32;4.95;;;;;;;11.62;72.79;95855.94;5015521;28;20041;-64
2021/04/29 09:18:08;;;;;;;8.65;4.82;;;;;;;12.55;67.05;95860.41;5021872;28;20389;-65
2021/04/29 09:20:35;;;;;;;9.20;4.25;;;;;;;12.80;67.28;95856.72;5023931;28;20042;-62
2021/04/29 09:23:05;;;;;;;9.48;4.53;;;;;;;13.19;65.28;95864.72;5025131;28;20041;-64
2021/04/29 09:25:32;;;;;;;8.23;4.35;;;;;;;12.85;64.75;95870.03;5023604;28;20044;-64
2021/04/29 09:27:58;;;;;;;9.93;4.47;;;;;;;13.12;66.62;95867.50;5023691;28;20044;-65
2021/04/29 09:30:25;;;;;;;17.33;6.97;;;;;;;14.01;59.11;95859.72;5019065;28;20050;-64
2021/04/29 09:32:51;;;;;;;6.88;3.78;;;;;;;14.13;58.47;95850.94;5024002;28;20034;-64
2021/04/29 09:35:21;;;;;;;7.05;4.13;;;;;;;13.81;58.87;95851.28;5019020;28;20107;-65
2021/04/29 09:37:47;;;;;;;11.40;4.38;;;;;;;14.18;58.83;95846.16;5024807;28;20045;-63
2021/04/29 09:40:16;;;;;;;10.93;4.35;;;;;;;14.47;59.36;95849.34;5022556;28;20103;-63
2021/04/29 09:42:45;;;;;;;8.27;4.40;;;;;;;14.44;57.78;95844.66;5026534;28;20041;-63
2021/04/29 09:45:32;;;;;;;8.35;3.40;;;;;;;13.77;56.22;95854.06;5019796;28;20038;-65
2021/04/29 09:48:06;;;;;;;9.38;4.13;;;;;;;13.44;58.50;95855.53;5029570;28;20045;-64
2021/04/29 09:50:39;;;;;;;8.10;4.22;;;;;;;13.05;61.57;95850.28;5032952;28;20037;-64
2021/04/29 09:53:10;;;;;;;9.15;4.07;;;;;;;13.03;59.17;95856.19;5020750;28;20041;-61
2021/04/29 09:55:41;;;;;;;12.23;4.43;;;;;;;13.45;58.11;95862.59;5024854;28;20049;-63
2021/04/29 09:58:18;;;;;;;6.20;3.70;;;;;;;13.63;57.61;95859.69;5001948;28;20045;-64
2021/04/29 10:00:48;;;;;;;7.18;3.58;;;;;;;14.09;55.41;95858.44;5024655;28;20061;-63
2021/04/29 10:03:15;;;;;;;7.78;3.40;;;;;;;14.00;55.42;95865.63;5018451;28;20068;-63
2021/04/29 10:05:41;;;;;;;7.88;3.50;;;;;;;13.58;55.33;95862.88;5013687;28;20053;-63
2021/04/29 10:08:10;;;;;;;9.18;3.90;;;;;;;13.73;57.75;95863.53;5018343;28;20093;-64
2021/04/29 10:10:38;;;;;;;16.25;6.63;;;;;;;13.69;58.97;95858.06;5023166;28;20041;-64
2021/04/29 10:13:05;;;;;;;14.90;5.70;;;;;;;13.80;55.56;95851.66;5019496;28;20042;-62
2021/04/29 10:15:38;;;;;;;15.52;4.13;;;;;;;13.92;54.61;95846.44;5016058;28;20053;-64
2021/04/29 10:18:14;;;;;;;10.45;4.03;;;;;;;13.80;56.47;95855.19;5011186;28;20041;-60
2021/04/29 10:20:48;;;;;;;9.77;4.05;;;;;;;13.76;56.42;95859.97;5022990;28;20041;-63
2021/04/29 10:23:17;;;;;;;11.00;4.00;;;;;;;13.65;55.80;95859.25;5007074;28;20373;-64
2021/04/29 10:25:49;;;;;;;8.48;3.85;;;;;;;13.24;56.76;95862.75;5003794;28;20041;-64
2021/04/29 10:28:15;;;;;;;15.43;4.75;;;;;;;13.43;57.15;95869.69;4998065;28;20048;-64
2021/04/29 10:30:41;;;;;;;11.52;4.60;;;;;;;13.46;57.89;95866.13;5003278;28;20077;-64
2021/04/29 10:33:17;;;;;;;11.57;3.80;;;;;;;13.51;56.88;95862.94;5007194;28;20608;-61
2021/04/29 10:35:57;;;;;;;11.50;4.13;;;;;;;13.52;57.24;95876.28;5023645;28;20488;-63
2021/04/29 10:38:33;;;;;;;7.95;3.28;;;;;;;13.35;56.42;95872.47;5027933;28;20488;-63
2021/04/29 10:41:25;;;;;;;14.25;4.07;;;;;;;13.27;58.67;95873.72;5014496;28;20087;-64
2021/04/29 10:43:53;;;;;;;14.82;4.75;;;;;;;13.26;58.91;95882.38;5001562;28;20042;-63
2021/04/29 10:46:30;;;;;;;24.05;6.22;;;;;;;12.69;60.26;95878.00;5018165;28;20033;-63
2021/04/29 10:48:56;;;;;;;10.00;4.15;;;;;;;12.85;60.59;95877.50;5007119;28;20038;-64
2021/04/29 10:51:30;;;;;;;6.40;3.53;;;;;;;13.07;59.10;95878.97;4998915;28;20753;-62
2021/04/29 10:54:11;;;;;;;15.52;5.40;;;;;;;13.15;59.59;95877.72;5003107;28;20050;-64
2021/04/29 10:56:36;;;;;;;15.50;4.90;;;;;;;13.09;60.43;95881.28;5010671;28;20520;-63
2021/04/29 10:59:13;;;;;;;10.60;4.15;;;;;;;12.75;62.88;95873.66;5021933;28;20045;-63
2021/04/29 11:01:44;;;;;;;8.60;3.70;;;;;;;12.51;62.65;95870.59;5022986;28;20033;-64
2021/04/29 11:04:19;;;;;;;8.90;4.32;;;;;;;12.71;63.78;95859.13;5017506;28;20237;-64
2021/04/29 11:06:45;;;;;;;10.15;4.05;;;;;;;12.79;63.16;95866.16;5023474;28;20038;-65
2021/04/29 11:09:17;;;;;;;8.52;3.97;;;;;;;12.79;64.17;95871.66;5016316;28;20045;-63
2021/04/29 11:11:43;;;;;;;15.82;6.40;;;;;;;13.08;63.89;95875.00;5020813;28;20049;-64
2021/04/29 11:14:13;;;;;;;12.43;4.78;;;;;;;13.16;62.54;95882.03;5005867;28;20041;-63
2021/04/29 11:16:49;;;;;;;13.18;4.93;;;;;;;13.25;62.11;95880.78;5004356;28;20053;-64
2021/04/29 11:19:34;;;;;;;8.55;3.70;;;;;;;13.12;64.67;95877.72;4998440;28;20045;-63
2021/04/29 11:22:01;;;;;;;7.97;5.07;;;;;;;13.48;61.44;95870.03;5003896;28;20129;-63
2021/04/29 11:24:39;;;;;;;20.92;6.72;;;;;;;13.52;62.59;95867.25;5000343;28;20045;-64
2021/04/29 11:27:16;;;;;;;14.20;5.68;;;;;;;13.37;63.07;95872.84;4999345;28;20066;-61
2021/04/29 11:29:41;;;;;;;10.60;4.68;;;;;;;13.39;62.94;95870.47;5002212;28;20045;-64
2021/04/29 11:32:07;;;;;;;7.13;3.80;;;;;;;13.24;63.45;95860.75;4997912;28;20046;-63
2021/04/29 11:34:46;;;;;;;7.57;4.25;;;;;;;13.06;61.73;95857.38;5002377;28;20489;-63